РПИ Магадан

РегЦ ЕС ОрВД Магадан

Региональный центр дивизиона VATRUS в сети VATSIM (Магадан) - оперативный орган обслуживания виртуального воздушного движения в РПИ Магадан.

Зона ответственности Магаданского регионального центра ЕС ОрВД покрывает Магаданскую Область, Чукотский Автономный Округ и Камчатский Край. Общая площадь территории - 5,8 млн. кв.км

Пользователями воздушного пространства РегЦ ЕС ОрВД (Магадан) являются авиакомпании не только России, но и многих зарубежных стран. В настоящее время региональный центр предоставляет аэронавигационное обслуживание более чем 60 авиакомпаниям, из которых 26 — зарубежные.

В зоне ответственности РегЦ ЕС ОрВД Магадан расположены аэродромы Магадан (Сокол) | Анадырь (Угольный) | Петропавловск-Камчатский (Елизово) | Певек

Секторы РЦ

Магадан-Контроль (UHMM_CTR) - 135.600

Магадан-Контроль  - Сектор Юг (UHMM_S_CTR) - 135.600

Магадан-Контроль  - Сектор Север (UHMM_N_CTR) - 133.200

Магадан-Контроль - Сектор Север-1 (UHMM_N1_CTR) - 133.000

Магадан-Контроль - Сектор Север-2 (UHMM_N2_CTR) - 133.700

Магадан-Контроль - Сектор Камчатка-1 (UHMM_K1_CTR) - 134.500

Магадан-Контроль - Сектор Камчатка-2 (UHMM_K2_CTR) - 122.000

Магадан-Контроль - Сектор Океанический (UHMM_O_CTR) - 133.700

МДП

Магадан-Район (UHMM_L_CTR) - 123.250

Петропавловск-Район (UHPP_L_CTR) - 134.300

Анадырь-Район (UHMA_L_CTR) - 131.000

Лого Магадан
Руководство

Konstantin Gordeev

Начальник РегЦ ЕС ОрВД (Магадан)

Denis Makosov

Заместитель начальника РегЦ ЕС ОрВД (Магадан)

Nikita Zikeev

Специалист по планированию мероприятий
Инструкторы РПИ
Denis Makosov * (Unknown)
Ivan Aksenenko (Instructor)
Sergey Balandin (Senior Instructor)
Входит в состав
Восточная Россия

Диспетчеры РПИ

Диспетчер Рейтинг Допуски *
Ashot Hakobyan Controller UHMM_CTR
Lihan Bao Controller UHMM_CTR
Yuriy Kolomeytsev Controller UHMM_CTR
Alex Kalchenko Senior Student UHMM_CTR  *
Konstantin Gordeev Controller UHMM_CTR
Maxim Osmolovskiy Controller UHMM_CTR
Mikhail Gogolev Instructor UHMM_CTR
Sergey Balandin Senior Instructor UHMM_CTR
Daniel Cherednichenko Student 2 UHMM_TWR, UHPP_TWR
Egor Garifulin Student 2 UHMM_TWR, UHPP_TWR
Ivan Pivovarov Student UHPP_GND
Maxim Korobko Senior Student UHMM_APP, UHPP_APP
Nikita Brynkov Student 2 UHMM_TWR
Nikita Zikeev Senior Student UHMM_APP, UHPP_APP

Аэропорты РПИ

ICAO Город Название Погода
UHMA Анадырь Угольный UHMA 100900Z 01011MPS 2100 -SN BLSN BKN018 OVC027 M10/M12 Q0996 R01/////// NOSIG RMK TDZ R01/01011G13MPS END R01/02012G15MPS QFE743/0991
UHMM Магадан Магадан UHMM 100900Z 00000MPS 9999 SCT040 M28/M31 Q1003 R10/89//35 NOSIG RMK QFE738 R28/00000MPS
UHMP Певек Певек
UHPP Петропавловск-Камчатский Елизово UHPP 100900Z 33004MPS CAVOK M16/M18 Q1009 R34L/710160 NOSIG RMK QFE753/1004
UHMD Провидения Бухта Провидения
UHEK Купол Купол